createdAt,value
2018-04-13T00:00:43.772Z,43.70
2018-04-13T00:06:12.708Z,44.00
2018-04-13T00:11:41.617Z,44.10
2018-04-13T00:17:09.763Z,44.10
2018-04-13T00:22:38.679Z,44.70
2018-04-13T00:28:06.816Z,44.70
2018-04-13T00:33:34.977Z,44.20
2018-04-13T00:39:03.128Z,44.80
2018-04-13T00:44:31.603Z,44.50
2018-04-13T00:50:00.506Z,44.90
2018-04-13T00:55:28.654Z,44.80
2018-04-13T01:00:57.578Z,45.70
2018-04-13T01:06:25.729Z,45.70
2018-04-13T01:11:53.872Z,45.50
2018-04-13T01:17:22.010Z,46.10
2018-04-13T01:22:50.163Z,46.20
2018-04-13T01:28:19.053Z,46.40
2018-04-13T01:33:47.179Z,46.50
2018-04-13T01:39:15.319Z,46.10
2018-04-13T01:44:43.443Z,45.60
2018-04-13T01:50:11.575Z,45.90
2018-04-13T01:55:40.493Z,45.30
2018-04-13T02:01:08.624Z,45.40
2018-04-13T02:06:37.540Z,44.60
2018-04-13T02:12:05.694Z,44.60
2018-04-13T02:17:34.591Z,44.90
2018-04-13T02:23:02.738Z,44.90
2018-04-13T02:28:31.671Z,44.20
2018-04-13T02:33:59.843Z,44.20
2018-04-13T02:39:28.060Z,43.80
2018-04-13T02:44:56.221Z,43.30
2018-04-13T02:50:25.139Z,43.20
2018-04-13T02:55:53.304Z,43.10
2018-04-13T03:01:22.231Z,43.10
2018-04-13T03:06:51.173Z,42.80
2018-04-13T03:12:20.092Z,42.50
2018-04-13T03:17:48.223Z,43.00
2018-04-13T03:23:17.137Z,42.20
2018-04-13T03:28:45.279Z,42.10
2018-04-13T03:34:14.175Z,42.00
2018-04-13T03:39:42.327Z,41.90
2018-04-13T03:45:10.463Z,42.10
2018-04-13T03:50:39.398Z,42.10
2018-04-13T03:56:08.305Z,42.10
2018-04-13T04:01:36.447Z,42.00
2018-04-13T04:07:05.374Z,42.20
2018-04-13T04:12:33.529Z,42.20
2018-04-13T04:18:01.723Z,42.60
2018-04-13T04:23:47.942Z,42.30
2018-04-13T04:29:19.521Z,42.50
2018-04-13T04:34:47.688Z,42.70
2018-04-13T04:40:15.855Z,43.10
2018-04-13T04:45:44.785Z,43.00
2018-04-13T04:51:12.952Z,43.00
2018-04-13T04:56:41.089Z,43.30
2018-04-13T05:02:09.997Z,43.50
2018-04-13T05:07:38.135Z,43.40
2018-04-13T05:13:06.270Z,43.50
2018-04-13T05:18:35.177Z,43.70
2018-04-13T05:24:03.342Z,43.60
2018-04-13T05:29:31.473Z,43.50
2018-04-13T05:34:59.623Z,43.40
2018-04-13T05:40:27.786Z,43.10
2018-04-13T05:45:56.921Z,42.80
2018-04-13T05:51:25.829Z,42.80
2018-04-13T05:56:53.991Z,42.80
2018-04-13T06:02:22.912Z,42.60
2018-04-13T06:07:51.039Z,42.60
2018-04-13T06:13:19.957Z,43.10
2018-04-13T06:18:48.106Z,42.50
2018-04-13T06:24:17.081Z,42.20
2018-04-13T06:29:45.156Z,42.00
2018-04-13T06:35:14.060Z,42.20
2018-04-13T06:40:42.242Z,42.20
2018-04-13T06:46:10.368Z,42.40
2018-04-13T06:51:38.547Z,42.50
2018-04-13T06:57:07.455Z,42.50
2018-04-13T07:02:35.653Z,42.50
2018-04-13T07:08:04.549Z,42.80
2018-04-13T07:13:33.439Z,42.90
2018-04-13T07:19:01.622Z,43.00
2018-04-13T07:24:30.531Z,43.10
2018-04-13T07:29:58.693Z,43.10
2018-04-13T07:35:26.826Z,42.80
2018-04-13T07:40:55.784Z,42.70
2018-04-13T07:46:23.946Z,42.70
2018-04-13T07:51:52.838Z,41.70
2018-04-13T07:57:20.984Z,41.70
2018-04-13T08:02:49.117Z,41.40
2018-04-13T08:08:18.032Z,41.90
2018-04-13T08:13:46.174Z,41.80
2018-04-13T08:19:15.082Z,41.30
2018-04-13T08:24:43.220Z,41.30
2018-04-13T08:30:11.369Z,40.90
2018-04-13T08:35:39.524Z,41.40
2018-04-13T08:41:07.651Z,40.40
2018-04-13T08:46:35.789Z,39.60
2018-04-13T08:52:03.928Z,38.60
2018-04-13T08:57:32.848Z,37.50
2018-04-13T09:03:00.985Z,37.50
2018-04-13T09:08:29.896Z,37.00
2018-04-13T09:13:58.043Z,37.00
2018-04-13T09:19:26.948Z,34.80
2018-04-13T09:24:55.108Z,34.70
2018-04-13T09:30:23.240Z,35.30
2018-04-13T09:35:51.398Z,34.70
2018-04-13T09:41:19.713Z,35.70
2018-04-13T09:46:48.688Z,35.20
2018-04-13T09:52:16.836Z,34.80
2018-04-13T09:57:44.984Z,34.80
2018-04-13T10:03:18.747Z,34.60
2018-04-13T10:08:46.886Z,35.00
2018-04-13T10:14:15.029Z,34.90
2018-04-13T10:19:43.932Z,35.40
2018-04-13T10:25:12.071Z,35.30
2018-04-13T10:30:40.218Z,35.40
2018-04-13T10:36:08.352Z,34.90
2018-04-13T10:41:36.501Z,34.50
2018-04-13T10:47:04.641Z,32.40
2018-04-13T10:52:32.775Z,31.70
2018-04-13T10:58:01.710Z,31.30
2018-04-13T11:03:29.850Z,31.20
2018-04-13T11:08:58.882Z,30.80
2018-04-13T11:14:27.852Z,30.20
2018-04-13T11:19:56.028Z,30.10
2018-04-13T11:25:24.961Z,29.20
2018-04-13T11:30:53.889Z,30.90
2018-04-13T11:36:22.028Z,30.80
2018-04-13T11:41:50.939Z,33.50
2018-04-13T11:47:19.099Z,33.40
2018-04-13T11:52:47.237Z,34.50
2018-04-13T11:58:15.386Z,34.90
2018-04-13T12:03:43.534Z,35.70
2018-04-13T12:09:11.678Z,36.20
2018-04-13T12:14:39.836Z,36.20
2018-04-13T12:20:07.967Z,36.90
2018-04-13T12:25:36.139Z,36.80
2018-04-13T12:31:04.350Z,37.00
2018-04-13T12:36:33.239Z,37.90
2018-04-13T12:42:01.417Z,37.80
2018-04-13T12:47:29.654Z,37.90
2018-04-13T12:52:57.808Z,38.80
2018-04-13T12:58:25.981Z,37.90
2018-04-13T13:03:54.132Z,36.90
2018-04-13T13:09:22.295Z,36.70
2018-04-13T13:14:51.247Z,34.50
2018-04-13T13:20:20.168Z,33.80
2018-04-13T13:25:48.326Z,33.80
2018-04-13T13:31:16.451Z,33.80
2018-04-13T13:36:44.601Z,33.80
2018-04-13T13:42:12.737Z,33.30
2018-04-13T13:47:40.867Z,32.80
2018-04-13T13:53:09.788Z,31.00
2018-04-13T13:58:37.921Z,30.90
2018-04-13T14:04:06.078Z,28.80
2018-04-13T14:09:34.220Z,29.30
2018-04-13T14:15:02.372Z,29.70
2018-04-13T14:20:30.537Z,33.10
2018-04-13T14:25:58.694Z,34.90
2018-04-13T14:31:26.860Z,37.20
2018-04-13T14:36:55.034Z,34.20
2018-04-13T14:42:23.202Z,31.60
2018-04-13T14:47:51.359Z,31.30
2018-04-13T14:53:19.483Z,33.20
2018-04-13T14:58:47.635Z,36.10
2018-04-13T15:04:15.789Z,35.60
2018-04-13T15:09:43.934Z,37.70
2018-04-13T15:15:12.069Z,39.90
2018-04-13T15:20:40.233Z,41.10
2018-04-13T15:26:08.384Z,40.90
2018-04-13T15:31:36.512Z,39.80
2018-04-13T15:37:04.657Z,39.60
2018-04-13T15:42:32.804Z,38.90
2018-04-13T15:48:01.794Z,42.30
2018-04-13T15:53:29.983Z,42.30
2018-04-13T15:58:58.365Z,43.00
2018-04-13T16:04:27.293Z,44.60
2018-04-13T16:09:56.425Z,44.50
2018-04-13T16:15:25.816Z,44.50
2018-04-13T16:20:53.985Z,44.80
2018-04-13T16:26:22.126Z,44.70
2018-04-13T16:31:50.256Z,43.60
2018-04-13T16:37:18.385Z,42.40
2018-04-13T16:42:47.304Z,44.20
2018-04-13T16:48:15.442Z,44.10
2018-04-13T16:53:44.335Z,45.40
2018-04-13T16:59:12.600Z,45.40
2018-04-13T17:04:41.559Z,46.50
2018-04-13T17:10:09.758Z,46.50
2018-04-13T17:15:37.959Z,47.10
2018-04-13T17:21:06.204Z,47.70
2018-04-13T17:26:35.112Z,48.80
2018-04-13T17:32:03.258Z,48.80
2018-04-13T17:37:32.169Z,50.30
2018-04-13T17:43:00.316Z,50.30
2018-04-13T17:48:29.285Z,51.70
2018-04-13T17:53:57.478Z,51.80
2018-04-13T17:59:25.637Z,51.50
2018-04-13T18:04:54.760Z,51.80
2018-04-13T18:10:22.932Z,52.10
2018-04-13T18:15:51.860Z,52.60
2018-04-13T18:21:19.997Z,52.60
2018-04-13T18:26:48.260Z,52.90
2018-04-13T18:32:16.399Z,53.30
2018-04-13T18:37:44.572Z,53.40
2018-04-13T18:43:13.475Z,54.00
2018-04-13T18:48:41.623Z,54.00
2018-04-13T18:54:09.777Z,54.10
2018-04-13T18:59:37.920Z,54.70
2018-04-13T19:05:06.095Z,54.60
2018-04-13T19:10:34.991Z,55.00
2018-04-13T19:16:03.155Z,55.00
2018-04-13T19:21:32.081Z,55.40
2018-04-13T19:27:01.003Z,55.60
2018-04-13T19:32:29.682Z,55.60
2018-04-13T19:37:58.858Z,55.70
2018-04-13T19:43:27.056Z,55.90
2018-04-13T19:48:55.240Z,56.60
2018-04-13T19:54:24.192Z,56.50
2018-04-13T19:59:52.349Z,56.50
2018-04-13T20:05:20.515Z,56.50
2018-04-13T20:10:49.425Z,56.80
2018-04-13T20:16:22.582Z,56.80
2018-04-13T20:21:52.162Z,57.20
2018-04-13T20:27:20.560Z,57.00
2018-04-13T20:32:48.864Z,56.90
2018-04-13T20:38:17.158Z,57.00
2018-04-13T20:43:45.323Z,56.90
2018-04-13T20:49:14.274Z,57.50
2018-04-13T20:54:43.322Z,57.20
2018-04-13T21:00:11.484Z,60.60
2018-04-13T21:05:39.646Z,58.90
2018-04-13T21:11:08.582Z,58.30
2018-04-13T21:16:37.507Z,58.50
2018-04-13T21:22:05.648Z,58.50
2018-04-13T21:27:34.551Z,58.60
2018-04-13T21:33:02.710Z,58.60
2018-04-13T21:38:31.633Z,58.70
2018-04-13T21:43:59.767Z,58.70
2018-04-13T21:49:28.709Z,59.00
2018-04-13T21:54:57.876Z,59.10
2018-04-13T22:00:26.601Z,59.10
2018-04-13T22:05:54.782Z,59.60
2018-04-13T22:11:22.934Z,60.00
2018-04-13T22:16:51.082Z,61.50
2018-04-13T22:22:19.240Z,62.00
2018-04-13T22:27:47.381Z,62.40
2018-04-13T22:33:16.267Z,62.80
2018-04-13T22:38:44.425Z,62.90
2018-04-13T22:44:13.338Z,63.20
2018-04-13T22:49:41.481Z,63.20
2018-04-13T22:55:10.390Z,63.70
2018-04-13T23:00:38.533Z,63.70
2018-04-13T23:06:07.437Z,64.20
2018-04-13T23:11:35.564Z,64.20
2018-04-13T23:17:03.725Z,64.60
2018-04-13T23:22:38.650Z,65.10
2018-04-13T23:28:06.781Z,65.20
2018-04-13T23:33:34.921Z,65.20
2018-04-13T23:39:03.070Z,65.40
2018-04-13T23:44:31.199Z,65.60
2018-04-13T23:49:59.356Z,65.70
2018-04-13T23:55:36.055Z,65.80
